Airfield :
LOGIN :

Register | Disclaimer

   EN    FR    IT 

 










Legend :    VFR   Marginal VFR   IFR   Intensive IFR   Very Intensive IFR
Visi :
Ceiling :
>= 8 km
>= 3000ft
5 to 8 km
1000 to 3000 ft
1500m to 5 km
500 to 1000 ft
800 to 1500m
200 to 500 ft
< 800m
< 200 ft
Symbols :   Thunderstorms  Fog  Heavy snow  Heavy precipitations  Wind > 20 kt
SIGMETs :     Misc.  Thunderstorms  Icing  Turbulence  Mountain Waves  Volcanic Ashes







- Airport Elevation : 74 ft
- IATA code : EIN


EHEH - Eindhoven

CURRENT METAR :
  • 191525Z AUTO 26012KT 220V300 9999 FEW051 10/03 Q1019 BLU 25012G22KT 9999 SCT032

EXPIRED METARs :
  • 191455Z AUTO 27008KT 230V330 9999 FEW032 SCT045 10/04 Q1019 BLU 25012G22KT 9999 SCT032
  • 191425Z AUTO 27010KT 240V310 9999 SCT031 BKN037 BKN042 10/04 Q1019 BLU 25012G22KT 9999 SCT032
  • 191401Z AUTO 26011KT 220V290 9999 FEW032 SCT044 10/03 Q1019 BLU 25012G22KT 9999 SCT032
  • 191355Z AUTO 26010KT 230V300 9999 BKN032 BKN038 11/04 Q1019 BLU 25012G22KT 9999 SCT025
  • 191325Z AUTO 26011KT 210V310 9999 SCT029 BKN033 BKN041 11/04 Q1019 BLU 25012G22KT 9999 SCT025
  • 191255Z AUTO 25011KT 220V320 9999 FEW028 BKN038 BKN043 11/04 Q1019 BLU 25012G22KT 9999 SCT025

TAF TAF EHEH
Valid from the 19 at 12:00 until the 20 at 18:00 UTC


191105Z 1912/2018 25012G22KT 9999 SCT020
BECMG 1917/1920 22007KT
BECMG 2010/2013 24010G20KT
No reported NOTAMs for that airfield.



MET'MAP, your aeronautical weather chart ! - Copyright ORBIFLY December 2007 - Disclaimer

ORBIFLY MET'MAP TEAM :

Programming & Development : Alexandra Zaïnal
Concept & Development : Baudouin d'Aumeries
Co-Development & Prog : Marc-Olivier Méhu
Technical & hardware support : Manuel Goepfert

Contact : metmap@orbifly.com




SOURCES & CREDITS :

   NOAA